createdAt,value
2023-05-22T00:02:11.106Z,13.97
2023-05-22T00:04:40.056Z,13.86
2023-05-22T00:07:07.792Z,13.89
2023-05-22T00:09:35.428Z,13.87
2023-05-22T00:12:03.058Z,13.84
2023-05-22T00:14:30.669Z,13.85
2023-05-22T00:17:00.213Z,13.86
2023-05-22T00:19:30.459Z,13.86
2023-05-22T00:21:58.245Z,13.83
2023-05-22T00:24:25.936Z,13.78
2023-05-22T00:26:53.517Z,13.73
2023-05-22T00:29:21.135Z,13.68
2023-05-22T00:31:48.766Z,13.65
2023-05-22T00:34:17.764Z,13.62
2023-05-22T00:36:45.495Z,13.56
2023-05-22T00:39:13.134Z,13.53
2023-05-22T00:41:40.758Z,13.55
2023-05-22T00:44:08.404Z,13.55
2023-05-22T00:46:36.424Z,13.51
2023-05-22T00:49:04.198Z,13.37
2023-05-22T00:51:33.145Z,13.31
2023-05-22T00:54:00.928Z,13.30
2023-05-22T00:56:28.999Z,13.30
2023-05-22T00:58:56.673Z,13.22
2023-05-22T01:01:26.346Z,13.09
2023-05-22T01:03:55.660Z,13.01
2023-05-22T01:06:23.417Z,12.90
2023-05-22T01:08:52.371Z,12.85
2023-05-22T01:11:23.181Z,12.87
2023-05-22T01:13:56.198Z,12.89
2023-05-22T01:16:29.832Z,12.90
2023-05-22T01:19:02.802Z,12.88
2023-05-22T01:21:35.535Z,12.86
2023-05-22T01:24:21.828Z,12.86
2023-05-22T01:27:17.581Z,12.86
2023-05-22T01:29:48.330Z,12.85
2023-05-22T01:32:18.500Z,12.81
2023-05-22T01:34:47.697Z,12.74
2023-05-22T01:37:16.349Z,12.61
2023-05-22T01:39:44.457Z,12.46
2023-05-22T01:42:12.123Z,12.45
2023-05-22T01:44:39.766Z,12.44
2023-05-22T01:47:08.347Z,12.43
2023-05-22T01:49:37.673Z,12.41
2023-05-22T01:52:12.209Z,12.40
2023-05-22T01:54:45.415Z,12.43
2023-05-22T01:57:17.856Z,12.44
2023-05-22T01:59:48.491Z,12.45
2023-05-22T02:02:18.353Z,12.41
2023-05-22T02:04:50.669Z,12.37
2023-05-22T02:07:20.654Z,12.39
2023-05-22T02:09:48.958Z,12.40
2023-05-22T02:12:16.987Z,12.42
2023-05-22T02:14:45.045Z,12.39
2023-05-22T02:17:12.784Z,12.32
2023-05-22T02:19:40.562Z,12.31
2023-05-22T02:22:13.572Z,12.23
2023-05-22T02:24:42.097Z,12.10
2023-05-22T02:27:10.590Z,12.05
2023-05-22T02:29:38.342Z,12.01
2023-05-22T02:32:06.782Z,12.02
2023-05-22T02:34:34.974Z,12.02
2023-05-22T02:37:04.082Z,12.00
2023-05-22T02:39:33.071Z,11.94
2023-05-22T02:42:00.788Z,11.90
2023-05-22T02:44:28.445Z,11.87
2023-05-22T02:46:56.183Z,11.86
2023-05-22T02:49:23.899Z,11.87
2023-05-22T02:51:51.529Z,11.89
2023-05-22T02:54:19.158Z,11.88
2023-05-22T02:56:48.139Z,11.83
2023-05-22T02:59:16.498Z,11.80
2023-05-22T03:01:44.402Z,11.78
2023-05-22T03:04:12.941Z,11.77
2023-05-22T03:06:40.759Z,11.77
2023-05-22T03:09:08.745Z,11.77
2023-05-22T03:11:36.390Z,11.75
2023-05-22T03:14:05.375Z,11.74
2023-05-22T03:16:34.421Z,11.73
2023-05-22T03:19:09.326Z,11.69
2023-05-22T03:21:37.392Z,11.67
2023-05-22T03:24:05.271Z,11.68
2023-05-22T03:26:32.859Z,11.68
2023-05-22T03:29:00.515Z,11.66
2023-05-22T03:31:31.382Z,11.63
2023-05-22T03:33:59.051Z,11.65
2023-05-22T03:36:26.731Z,11.64
2023-05-22T03:38:54.499Z,11.63
2023-05-22T03:41:22.322Z,11.60
2023-05-22T03:43:49.973Z,11.57
2023-05-22T03:46:17.811Z,11.58
2023-05-22T03:48:46.831Z,11.57
2023-05-22T03:51:14.420Z,11.59
2023-05-22T03:53:42.027Z,11.58
2023-05-22T03:56:09.621Z,11.55
2023-05-22T03:58:37.223Z,11.54
2023-05-22T04:01:05.187Z,11.55
2023-05-22T04:03:32.816Z,11.57
2023-05-22T04:06:01.807Z,11.57
2023-05-22T04:08:30.581Z,11.58
2023-05-22T04:10:58.182Z,11.62
2023-05-22T04:13:25.800Z,11.63
2023-05-22T04:15:53.649Z,11.66
2023-05-22T04:18:21.346Z,11.70
2023-05-22T04:20:51.763Z,11.74
2023-05-22T04:23:21.453Z,11.77
2023-05-22T04:25:49.036Z,11.79
2023-05-22T04:28:18.181Z,11.80
2023-05-22T04:30:46.019Z,11.86
2023-05-22T04:33:13.782Z,11.85
2023-05-22T04:35:42.359Z,11.90
2023-05-22T04:38:10.578Z,11.97
2023-05-22T04:40:39.923Z,12.01
2023-05-22T04:43:07.796Z,12.03
2023-05-22T04:45:35.530Z,12.07
2023-05-22T04:48:03.568Z,12.13
2023-05-22T04:50:32.422Z,12.19
2023-05-22T04:53:00.746Z,12.23
2023-05-22T04:55:28.372Z,12.31
2023-05-22T04:57:57.419Z,12.39
2023-05-22T05:00:26.554Z,12.46
2023-05-22T05:02:54.378Z,12.53
2023-05-22T05:05:22.149Z,12.58
2023-05-22T05:07:50.773Z,12.65
2023-05-22T05:10:18.564Z,12.73
2023-05-22T05:12:46.433Z,12.83
2023-05-22T05:15:15.421Z,12.91
2023-05-22T05:17:43.262Z,12.98
2023-05-22T05:20:14.389Z,13.09
2023-05-22T05:22:43.971Z,13.20
2023-05-22T05:25:11.945Z,13.30
2023-05-22T05:27:39.942Z,13.42
2023-05-22T05:30:08.826Z,13.53
2023-05-22T05:32:37.866Z,13.64
2023-05-22T05:35:06.343Z,13.76
2023-05-22T05:37:33.953Z,13.88
2023-05-22T05:40:01.529Z,14.00
2023-05-22T05:42:29.131Z,14.08
2023-05-22T05:44:56.700Z,14.23
2023-05-22T05:47:24.895Z,14.39
2023-05-22T05:49:53.847Z,14.54
2023-05-22T05:52:21.483Z,14.71
2023-05-22T05:54:49.388Z,14.87
2023-05-22T05:57:17.258Z,15.06
2023-05-22T05:59:44.850Z,15.22
2023-05-22T06:02:12.810Z,15.43
2023-05-22T06:04:40.399Z,15.65
2023-05-22T06:07:09.381Z,15.86
2023-05-22T06:09:37.073Z,16.06
2023-05-22T06:12:05.154Z,16.30
2023-05-22T06:14:33.369Z,16.52
2023-05-22T06:17:01.041Z,16.69
2023-05-22T06:19:28.730Z,16.89
2023-05-22T06:21:56.540Z,17.07
2023-05-22T06:24:25.520Z,17.28
2023-05-22T06:26:53.194Z,17.43
2023-05-22T06:29:21.209Z,17.61
2023-05-22T06:31:48.842Z,17.80
2023-05-22T06:34:16.495Z,18.00
2023-05-22T06:36:45.980Z,18.19
2023-05-22T06:39:13.654Z,18.32
2023-05-22T06:41:42.580Z,18.51
2023-05-22T06:44:10.353Z,18.78
2023-05-22T06:46:38.060Z,19.04
2023-05-22T06:49:06.146Z,19.23
2023-05-22T06:51:34.167Z,19.38
2023-05-22T06:54:03.593Z,19.62
2023-05-22T06:56:31.899Z,19.82
2023-05-22T06:59:00.846Z,19.96
2023-05-22T07:01:29.343Z,20.19
2023-05-22T07:03:58.724Z,20.39
2023-05-22T07:06:26.363Z,20.55
2023-05-22T07:08:54.342Z,20.81
2023-05-22T07:11:22.379Z,21.02
2023-05-22T07:13:50.011Z,21.14
2023-05-22T07:16:19.060Z,21.20
2023-05-22T07:18:47.004Z,21.38
2023-05-22T07:21:14.692Z,21.61
2023-05-22T07:23:42.323Z,21.85
2023-05-22T07:26:10.863Z,22.01
2023-05-22T07:28:38.811Z,22.18
2023-05-22T07:31:06.584Z,22.31
2023-05-22T07:33:35.702Z,22.37
2023-05-22T07:36:03.374Z,22.46
2023-05-22T07:38:32.012Z,22.65
2023-05-22T07:40:59.627Z,22.74
2023-05-22T07:43:27.214Z,22.85
2023-05-22T07:45:55.020Z,23.00
2023-05-22T07:48:22.662Z,23.10
2023-05-22T07:50:51.639Z,23.26
2023-05-22T07:53:19.217Z,23.36
2023-05-22T07:55:46.800Z,23.31
2023-05-22T07:58:14.682Z,23.47
2023-05-22T08:00:42.734Z,23.52
2023-05-22T08:03:10.394Z,23.53
2023-05-22T08:05:38.055Z,23.65
2023-05-22T08:08:07.114Z,23.63
2023-05-22T08:10:52.215Z,23.73
2023-05-22T08:13:20.349Z,23.50
2023-05-22T08:15:47.965Z,23.61
2023-05-22T08:18:15.637Z,23.87
2023-05-22T08:20:43.243Z,23.82
2023-05-22T08:23:12.137Z,23.00
2023-05-22T08:25:39.689Z,23.43
2023-05-22T08:28:07.358Z,23.71
2023-05-22T08:30:35.879Z,23.22
2023-05-22T08:33:03.622Z,23.23
2023-05-22T08:35:31.328Z,23.56
2023-05-22T08:37:58.838Z,23.53
2023-05-22T08:40:35.617Z,23.75
2023-05-22T08:43:03.236Z,23.71
2023-05-22T08:45:34.092Z,24.16
2023-05-22T08:48:06.009Z,24.38
2023-05-22T08:50:34.770Z,24.66
2023-05-22T08:53:03.211Z,24.95
2023-05-22T08:55:32.195Z,25.13
2023-05-22T08:58:00.661Z,25.29
2023-05-22T09:00:29.692Z,24.44
2023-05-22T09:02:57.624Z,23.85
2023-05-22T09:05:26.819Z,24.08
2023-05-22T09:07:56.521Z,24.68
2023-05-22T09:10:26.592Z,24.82
2023-05-22T09:13:05.669Z,24.54
2023-05-22T09:15:33.852Z,24.54
2023-05-22T09:18:01.909Z,24.74
2023-05-22T09:20:29.498Z,24.65
2023-05-22T09:22:57.168Z,24.69
2023-05-22T09:25:26.459Z,24.37
2023-05-22T09:27:54.267Z,24.48
2023-05-22T09:30:23.288Z,25.39
2023-05-22T09:32:51.104Z,25.29
2023-05-22T09:35:20.107Z,25.74
2023-05-22T09:37:47.837Z,25.55
2023-05-22T09:40:15.682Z,26.03
2023-05-22T09:42:45.899Z,26.14
2023-05-22T09:45:13.861Z,26.27
2023-05-22T09:47:43.268Z,26.44
2023-05-22T09:50:11.869Z,26.08
2023-05-22T09:52:39.719Z,26.24
2023-05-22T09:55:09.029Z,25.58
2023-05-22T09:57:43.379Z,26.00
2023-05-22T10:00:15.751Z,25.77
2023-05-22T10:02:46.964Z,26.40
2023-05-22T10:05:21.409Z,26.95
2023-05-22T10:07:51.736Z,26.92
2023-05-22T10:10:21.599Z,26.17
2023-05-22T10:12:53.884Z,25.76
2023-05-22T10:15:22.270Z,26.29
2023-05-22T10:17:51.680Z,25.56
2023-05-22T10:20:20.337Z,26.18
2023-05-22T10:22:48.899Z,26.40
2023-05-22T10:25:18.258Z,26.83
2023-05-22T10:27:46.640Z,27.33
2023-05-22T10:30:24.182Z,26.14
2023-05-22T10:32:59.081Z,26.44
2023-05-22T10:35:32.702Z,26.96
2023-05-22T10:38:15.003Z,27.24
2023-05-22T10:40:42.765Z,26.53
2023-05-22T10:43:10.629Z,26.61
2023-05-22T10:45:38.320Z,26.24
2023-05-22T10:48:08.878Z,26.65
2023-05-22T10:50:37.214Z,26.33
2023-05-22T10:53:24.707Z,26.42
2023-05-22T10:55:53.462Z,27.16
2023-05-22T10:58:27.143Z,27.12
2023-05-22T11:01:09.681Z,26.27
2023-05-22T11:03:58.444Z,26.40
2023-05-22T11:06:37.397Z,27.23
2023-05-22T11:09:29.199Z,27.09
2023-05-22T11:12:16.969Z,26.85
2023-05-22T11:14:48.648Z,26.97
2023-05-22T11:17:18.859Z,27.51
2023-05-22T11:19:58.648Z,27.93
2023-05-22T11:22:31.886Z,28.02
2023-05-22T11:24:59.536Z,27.64
2023-05-22T11:27:27.674Z,26.88
2023-05-22T11:29:56.009Z,26.80
2023-05-22T11:32:24.419Z,27.19
2023-05-22T11:34:54.030Z,27.53
2023-05-22T11:37:21.698Z,26.92
2023-05-22T11:39:53.152Z,27.06
2023-05-22T11:42:21.138Z,26.66
2023-05-22T11:44:48.789Z,26.19
2023-05-22T11:47:16.483Z,26.37
2023-05-22T11:49:44.389Z,27.07
2023-05-22T11:52:13.285Z,26.92
2023-05-22T11:54:40.883Z,27.35
2023-05-22T11:57:09.674Z,26.44
2023-05-22T11:59:37.227Z,27.04
2023-05-22T12:02:04.877Z,27.17
2023-05-22T12:04:33.644Z,27.59
2023-05-22T12:07:01.320Z,27.49
2023-05-22T12:09:30.259Z,27.69
2023-05-22T12:11:58.053Z,28.12
2023-05-22T12:14:27.166Z,28.06
2023-05-22T12:16:54.895Z,27.39
2023-05-22T12:19:22.651Z,27.52
2023-05-22T12:21:50.819Z,27.87
2023-05-22T12:24:23.155Z,27.85
2023-05-22T12:26:52.345Z,27.93
2023-05-22T12:29:20.001Z,28.43
2023-05-22T12:31:47.646Z,28.30
2023-05-22T12:34:17.120Z,27.64
2023-05-22T12:36:45.619Z,27.19
2023-05-22T12:39:18.947Z,27.74
2023-05-22T12:41:46.966Z,27.88
2023-05-22T12:44:16.960Z,27.65
2023-05-22T12:46:44.648Z,28.06
2023-05-22T12:49:12.375Z,27.91
2023-05-22T12:51:40.054Z,28.13
2023-05-22T12:54:07.652Z,28.57
2023-05-22T12:56:35.237Z,28.78
2023-05-22T12:59:03.947Z,28.49
2023-05-22T13:01:32.996Z,28.50
2023-05-22T13:04:00.765Z,28.41
2023-05-22T13:06:30.290Z,28.60
2023-05-22T13:09:00.856Z,28.96
2023-05-22T13:11:28.706Z,28.55
2023-05-22T13:13:56.394Z,28.60
2023-05-22T13:16:24.039Z,28.64
2023-05-22T13:18:53.098Z,28.69
2023-05-22T13:21:20.788Z,28.54
2023-05-22T13:23:48.509Z,29.05
2023-05-22T13:26:16.302Z,29.33
2023-05-22T13:28:43.974Z,28.70
2023-05-22T13:31:11.672Z,28.72
2023-05-22T13:33:39.358Z,28.30
2023-05-22T13:36:08.747Z,28.20
2023-05-22T13:38:36.933Z,28.45
2023-05-22T13:41:04.736Z,28.59
2023-05-22T13:43:32.456Z,28.18
2023-05-22T13:46:00.179Z,28.25
2023-05-22T13:48:27.902Z,28.44
2023-05-22T13:50:55.657Z,28.27
2023-05-22T13:53:24.752Z,28.37
2023-05-22T13:55:52.434Z,28.51
2023-05-22T13:58:20.137Z,27.98
2023-05-22T14:00:47.925Z,27.61
2023-05-22T14:03:17.699Z,27.50
2023-05-22T14:05:45.637Z,27.60
2023-05-22T14:08:13.674Z,27.21
2023-05-22T14:10:42.961Z,26.80
2023-05-22T14:13:10.643Z,26.94
2023-05-22T14:15:38.693Z,27.32
2023-05-22T14:18:06.552Z,27.49
2023-05-22T14:20:34.296Z,27.26
2023-05-22T14:23:01.906Z,26.91
2023-05-22T14:25:29.593Z,26.93
2023-05-22T14:27:58.609Z,27.37
2023-05-22T14:30:26.295Z,27.36
2023-05-22T14:32:54.090Z,27.25
2023-05-22T14:35:22.092Z,27.43
2023-05-22T14:37:49.996Z,27.63
2023-05-22T14:40:17.903Z,27.35
2023-05-22T14:42:45.751Z,27.32
2023-05-22T14:45:14.892Z,27.63
2023-05-22T14:47:43.326Z,27.79
2023-05-22T14:50:18.861Z,27.91
2023-05-22T14:52:47.749Z,27.44
2023-05-22T14:55:15.476Z,27.64
2023-05-22T14:57:43.120Z,27.66
2023-05-22T15:00:12.213Z,27.43
2023-05-22T15:02:41.518Z,27.39
2023-05-22T15:05:10.216Z,27.56
2023-05-22T15:10:10.250Z,27.70
2023-05-22T15:12:37.898Z,27.59
2023-05-22T15:15:06.208Z,27.71
2023-05-22T15:17:33.883Z,27.49
2023-05-22T15:20:04.264Z,27.49
2023-05-22T15:22:31.929Z,27.58
2023-05-22T15:25:06.323Z,27.35
2023-05-22T15:27:34.610Z,27.09
2023-05-22T15:30:02.342Z,26.87
2023-05-22T15:32:30.716Z,27.15
2023-05-22T15:34:58.492Z,27.36
2023-05-22T15:37:29.185Z,27.45
2023-05-22T15:39:58.511Z,27.45
2023-05-22T15:42:26.183Z,27.49
2023-05-22T15:44:53.846Z,27.23
2023-05-22T15:47:21.519Z,26.96
2023-05-22T15:49:49.173Z,26.93
2023-05-22T15:52:16.824Z,26.89
2023-05-22T15:54:45.964Z,26.84
2023-05-22T15:57:13.607Z,27.00
2023-05-22T15:59:41.246Z,26.86
2023-05-22T16:02:09.037Z,26.51
2023-05-22T16:04:36.701Z,26.68
2023-05-22T16:07:04.393Z,26.73
2023-05-22T16:09:32.842Z,26.77
2023-05-22T16:12:02.002Z,26.91
2023-05-22T16:14:29.644Z,26.97
2023-05-22T16:16:57.805Z,26.91
2023-05-22T16:19:25.554Z,26.64
2023-05-22T16:21:53.188Z,26.14
2023-05-22T16:24:20.804Z,25.87
2023-05-22T16:26:48.412Z,26.18
2023-05-22T16:29:20.428Z,26.47
2023-05-22T16:31:48.282Z,26.42
2023-05-22T16:34:15.937Z,26.43
2023-05-22T16:36:43.641Z,26.45
2023-05-22T16:39:11.295Z,26.30
2023-05-22T16:41:39.018Z,26.31
2023-05-22T16:44:06.631Z,26.41
2023-05-22T16:46:37.308Z,26.46
2023-05-22T16:49:07.348Z,26.41
2023-05-22T16:51:34.942Z,26.43
2023-05-22T16:54:02.548Z,26.43
2023-05-22T16:56:30.120Z,26.43
2023-05-22T16:58:57.724Z,26.39
2023-05-22T17:01:25.466Z,26.43
2023-05-22T17:03:55.198Z,26.45
2023-05-22T17:06:22.812Z,26.46
2023-05-22T17:08:50.711Z,26.40
2023-05-22T17:11:18.443Z,26.27
2023-05-22T17:13:46.079Z,26.04
2023-05-22T17:16:13.766Z,25.73
2023-05-22T17:18:41.512Z,25.63
2023-05-22T17:21:10.496Z,25.29
2023-05-22T17:23:38.855Z,25.06
2023-05-22T17:26:06.818Z,24.86
2023-05-22T17:28:34.469Z,24.56
2023-05-22T17:31:02.107Z,24.40
2023-05-22T17:33:29.751Z,24.28
2023-05-22T17:35:57.568Z,24.25
2023-05-22T17:38:26.707Z,24.14
2023-05-22T17:40:54.461Z,23.98
2023-05-22T17:43:22.085Z,23.97
2023-05-22T17:45:50.792Z,23.87
2023-05-22T17:48:23.384Z,23.82
2023-05-22T17:50:52.081Z,23.75
2023-05-22T17:53:20.609Z,23.72
2023-05-22T17:55:52.217Z,23.55
2023-05-22T17:58:20.272Z,23.53
2023-05-22T18:00:48.991Z,23.51
2023-05-22T18:03:20.228Z,23.51
2023-05-22T18:05:48.638Z,23.57
2023-05-22T18:08:16.364Z,23.51
2023-05-22T18:10:44.139Z,23.46
2023-05-22T18:13:13.124Z,23.37
2023-05-22T18:15:40.855Z,23.21
2023-05-22T18:18:10.006Z,23.11
2023-05-22T18:20:39.311Z,23.09
2023-05-22T18:23:07.234Z,23.14
2023-05-22T18:25:34.921Z,23.10
2023-05-22T18:28:02.565Z,23.04
2023-05-22T18:30:32.270Z,23.03
2023-05-22T18:32:59.959Z,22.98
2023-05-22T18:35:27.616Z,22.91
2023-05-22T18:37:55.362Z,22.75
2023-05-22T18:40:23.049Z,22.72
2023-05-22T18:42:50.691Z,22.67
2023-05-22T18:45:18.348Z,22.58
2023-05-22T18:47:47.450Z,22.51
2023-05-22T18:50:15.195Z,22.39
2023-05-22T18:52:42.820Z,22.30
2023-05-22T18:55:11.225Z,22.15
2023-05-22T18:57:38.941Z,22.06
2023-05-22T19:00:08.244Z,22.02
2023-05-22T19:02:35.999Z,21.97
2023-05-22T19:05:05.617Z,21.91
2023-05-22T19:07:33.312Z,21.87
2023-05-22T19:10:00.931Z,21.54
2023-05-22T19:12:31.664Z,21.38
2023-05-22T19:15:00.912Z,21.17
2023-05-22T19:17:28.579Z,21.07
2023-05-22T19:19:56.164Z,20.95
2023-05-22T19:22:25.189Z,20.81
2023-05-22T19:24:52.814Z,20.68
2023-05-22T19:27:20.466Z,20.60
2023-05-22T19:29:48.059Z,20.38
2023-05-22T19:32:15.806Z,20.36
2023-05-22T19:34:43.392Z,20.33
2023-05-22T19:37:11.007Z,20.14
2023-05-22T19:39:40.368Z,19.93
2023-05-22T19:42:10.640Z,19.75
2023-05-22T19:44:38.261Z,19.62
2023-05-22T19:47:06.288Z,19.41
2023-05-22T19:49:36.783Z,19.32
2023-05-22T19:52:04.840Z,19.22
2023-05-22T19:54:32.425Z,19.01
2023-05-22T19:57:01.381Z,18.81
2023-05-22T19:59:28.987Z,18.78
2023-05-22T20:01:56.781Z,18.57
2023-05-22T20:04:24.378Z,18.30
2023-05-22T20:06:51.990Z,18.37
2023-05-22T20:09:19.571Z,18.42
2023-05-22T20:11:47.174Z,18.46
2023-05-22T20:14:16.306Z,18.30
2023-05-22T20:16:44.020Z,18.24
2023-05-22T20:19:14.244Z,18.19
2023-05-22T20:21:42.044Z,18.14
2023-05-22T20:24:12.063Z,18.12
2023-05-22T20:26:39.734Z,17.98
2023-05-22T20:29:07.384Z,18.06
2023-05-22T20:31:36.417Z,18.10
2023-05-22T20:34:04.700Z,18.17
2023-05-22T20:36:32.653Z,18.15
2023-05-22T20:39:00.270Z,18.06
2023-05-22T20:41:27.965Z,17.73
2023-05-22T20:43:55.598Z,17.76
2023-05-22T20:46:24.230Z,17.77
2023-05-22T20:48:53.298Z,17.85
2023-05-22T20:51:21.476Z,17.90
2023-05-22T20:53:49.403Z,17.84
2023-05-22T20:56:17.064Z,17.83
2023-05-22T20:58:44.692Z,17.88
2023-05-22T21:01:12.432Z,17.91
2023-05-22T21:03:40.103Z,17.81
2023-05-22T21:06:09.236Z,17.48
2023-05-22T21:08:36.853Z,17.46
2023-05-22T21:11:06.794Z,17.56
2023-05-22T21:13:34.403Z,17.63
2023-05-22T21:16:02.075Z,17.66
2023-05-22T21:18:29.704Z,17.64
2023-05-22T21:20:57.348Z,17.66
2023-05-22T21:23:26.368Z,17.68
2023-05-22T21:25:53.987Z,17.63
2023-05-22T21:28:21.604Z,17.65
2023-05-22T21:30:49.229Z,17.66
2023-05-22T21:33:16.830Z,17.68
2023-05-22T21:35:44.445Z,17.58
2023-05-22T21:38:12.018Z,17.54
2023-05-22T21:40:42.613Z,17.51
2023-05-22T21:43:10.386Z,17.36
2023-05-22T21:45:38.884Z,17.27
2023-05-22T21:48:06.642Z,17.22
2023-05-22T21:50:34.328Z,17.21
2023-05-22T21:53:01.949Z,17.23
2023-05-22T21:55:29.553Z,17.21
2023-05-22T21:57:58.464Z,16.87
2023-05-22T22:00:26.067Z,16.86
2023-05-22T22:02:53.737Z,16.87
2023-05-22T22:05:21.624Z,16.88
2023-05-22T22:07:49.195Z,16.73
2023-05-22T22:10:17.080Z,16.80
2023-05-22T22:12:44.641Z,16.78
2023-05-22T22:15:14.288Z,16.67
2023-05-22T22:17:41.895Z,16.70
2023-05-22T22:20:10.425Z,16.71
2023-05-22T22:22:38.043Z,16.77
2023-05-22T22:25:06.542Z,16.78
2023-05-22T22:27:34.156Z,16.75
2023-05-22T22:30:02.015Z,16.75
2023-05-22T22:32:30.982Z,16.64
2023-05-22T22:34:58.612Z,16.52
2023-05-22T22:37:26.205Z,16.51
2023-05-22T22:39:53.798Z,16.52
2023-05-22T22:42:21.375Z,16.55
2023-05-22T22:44:48.977Z,16.54
2023-05-22T22:47:17.163Z,16.30
2023-05-22T22:49:46.195Z,16.20
2023-05-22T22:52:13.777Z,16.18
2023-05-22T22:54:44.436Z,16.16
2023-05-22T22:57:12.265Z,16.18
2023-05-22T22:59:39.873Z,16.22
2023-05-22T23:02:08.178Z,16.21
2023-05-22T23:04:36.471Z,16.23
2023-05-22T23:07:06.135Z,16.24
2023-05-22T23:09:33.763Z,16.24
2023-05-22T23:12:01.368Z,16.23
2023-05-22T23:14:29.010Z,16.25
2023-05-22T23:16:56.618Z,16.25
2023-05-22T23:19:24.351Z,16.22
2023-05-22T23:21:52.015Z,16.21
2023-05-22T23:24:21.042Z,16.20
2023-05-22T23:26:48.697Z,16.19
2023-05-22T23:29:16.369Z,16.11
2023-05-22T23:31:44.063Z,16.09
2023-05-22T23:34:11.787Z,16.09
2023-05-22T23:36:39.494Z,15.98
2023-05-22T23:39:07.158Z,15.86
2023-05-22T23:41:36.469Z,15.88
2023-05-22T23:44:05.289Z,15.88
2023-05-22T23:46:33.626Z,15.83
2023-05-22T23:49:01.256Z,15.86
2023-05-22T23:51:28.894Z,15.85
2023-05-22T23:53:56.495Z,15.84
2023-05-22T23:56:24.139Z,15.82
2023-05-22T23:58:53.161Z,15.76
